Newcastle University, New South Wales

11:08 PM AEST on August 30, 2016 (GMT +1000)
INEWSOUT101 | | Change Station

Elev 95 ft 32.92 °S, 151.62 °E | Updated 2 seconds ago

Clear
Clear
60.4 °F
Feels Like 60.4 °F
N
0.0
Wind Variable Wind from WNW
Gusts 0.0 mph

Today
High -- | Low -- °F
--% Chance of Precip.
Yesterday
High -- | Low -- °F
Precip. -- in
Pressure 30.18 in
Visibility 6.2 miles
Clouds
Dew Point 54.2 °F
Humidity 80%
Rainfall in
Snow Depth Not available.
6:13 AM 5:35 PM
Waning Crescent, 4% visible
METAR YWLM 301300Z AUTO 05005KT 9999 // NCD 17/14 Q1022
Pressure 30.18 in
Visibility 6.2 miles
Clouds
Dew Point 54.2 °F
Humidity 80%
Rainfall in
Snow Depth Not available.
6:13 AM 5:35 PM
Waning Crescent, 4% visible
METAR YWLM 301300Z AUTO 05005KT 9999 // NCD 17/14 Q1022

10-Day Weather Forecast

Almanac

Astronomy

Aug. 30, 2016 Rise Set
Actual Time
Civil Twilight
Nautical Twilight
Astronomical Twilight
Moon
Length of Visible Light
Length of Day
Tomorrow will be .
, % of the Moon is Illuminated

Today's Extremes

Country Highs Country Lows

Community

WunderPhotos

Upload Photos

1,935,828 photos uploaded!

WunderBlog® & News

Nearby

Air Quality

  Air Quality AQ Index Pollutant
Not available.

Snow Depth

Station Depth Elevation

Earthquake Activity

City Distance Mag. Time & Date
Minimum magnitude displayed is 2.5.

Coastal Water Temperatures

Place Temperature

Stations

Nearby Weather Stations

Station Location Temp. Windchill Dew Point Humidity Wind Precip. Elev Updated Type